PWSweather.com
Personal Weather Stations
Station Observations
SEVNO44
Sevno, PrimskovoSI 1276

SevnoPrimskovoSI 1276

Lat: 45.9796285, Lon: 14.924044999999978

Elevation: 1706.0368

Station Type: WS-2307

www.primskovo.eu/vreme

High Low Average
Temperature 64.0°F17.8°F 50.7°F10.4°F 54.9°F12.7°F
Dew Point 56.5°F13.6°F 47.8°F8.8°F 50.8°F10.4°F
Winds 8.5 mph -13.7 mph - Calm Calm 1.5 mph 2.4 mph
Wind Gusts 15.2 mph24.5 mph -- 4.0 mph6.4 mph
Humidity 92% 72% 86%
Pressure 29.78 in1008.50 in 29.65 in1004.10 in -
Precipitation 1.22 in31.00 in - -
Hour Temp Dew Point Humidity Winds Wind Gusts Pressure Precip Precip Rate Daily Precip Total
12:00 AM 52.5°F11.4°C 49.4°F9.7°C 89% Calm Calm -- 29.78 in1008.5 mb 0.00 in0.0 mm 0.00 in0.0 mm 0.00 in0.0 mm
12:05 AM 52.5°F11.4°C 49.4°F9.7°C 89% Calm Calm -- 29.78 in1008.5 mb 0.00 in0.0 mm 0.00 in0.0 mm 0.00 in0.0 mm
12:10 AM 52.5°F11.4°C 49.4°F9.7°C 89% Calm Calm -- 29.78 in1008.5 mb 0.00 in0.0 mm 0.00 in0.0 mm 0.00 in0.0 mm
12:15 AM 52.5°F11.4°C 49.4°F9.7°C 89% Calm Calm -- 29.78 in1008.5 mb 0.00 in0.0 mm 0.00 in0.0 mm 0.00 in0.0 mm
12:20 AM 52.5°F11.4°C 49.4°F9.7°C 89% Calm Calm -- 29.77 in1008.1 mb 0.00 in0.0 mm 0.00 in0.0 mm 0.00 in0.0 mm
12:25 AM 52.5°F11.4°C 49.4°F9.7°C 89% Calm Calm -- 29.77 in1008.1 mb 0.00 in0.0 mm 0.00 in0.0 mm 0.00 in0.0 mm
12:30 AM 52.5°F11.4°C 49.4°F9.7°C 89% Calm Calm 1.1 mph1.8 kmh 29.77 in1008.1 mb 0.00 in0.0 mm 0.00 in0.0 mm 0.00 in0.0 mm
12:35 AM 52.5°F11.4°C 49.4°F9.7°C 89% 0.1 mph NNE0.2 kmh NNE 1.1 mph1.8 kmh 29.77 in1008.1 mb 0.00 in0.0 mm 0.00 in0.0 mm 0.00 in0.0 mm
12:40 AM 52.5°F11.4°C 49.4°F9.7°C 89% 0.6 mph NNE1.0 kmh NNE 1.8 mph2.9 kmh 29.77 in1008.1 mb 0.00 in0.0 mm 0.00 in0.0 mm 0.00 in0.0 mm
12:45 AM 52.5°F11.4°C 49.4°F9.7°C 89% 1.1 mph NNE1.8 kmh NNE 2.0 mph3.2 kmh 29.76 in1007.8 mb 0.00 in0.0 mm 0.00 in0.0 mm 0.00 in0.0 mm
12:50 AM 52.5°F11.4°C 49.4°F9.7°C 89% 1.1 mph NNE1.8 kmh NNE 2.5 mph4.0 kmh 29.76 in1007.8 mb 0.00 in0.0 mm 0.00 in0.0 mm 0.00 in0.0 mm
12:55 AM 52.5°F11.4°C 49.4°F9.7°C 89% 1.4 mph NNE2.3 kmh NNE 2.5 mph4.0 kmh 29.76 in1007.8 mb 0.00 in0.0 mm 0.00 in0.0 mm 0.00 in0.0 mm
01:00 AM 52.5°F11.4°C 49.4°F9.7°C 89% 1.0 mph NNE1.6 kmh NNE 2.2 mph3.5 kmh 29.76 in1007.8 mb 0.00 in0.0 mm 0.00 in0.0 mm 0.00 in0.0 mm
01:05 AM 52.3°F11.3°C 49.2°F9.6°C 89% 0.3 mph NNE0.5 kmh NNE 1.8 mph2.9 kmh 29.76 in1007.8 mb 0.00 in0.0 mm 0.00 in0.0 mm 0.00 in0.0 mm
01:10 AM 52.3°F11.3°C 49.2°F9.6°C 89% 0.2 mph NE0.3 kmh NE 1.6 mph2.6 kmh 29.76 in1007.8 mb 0.00 in0.0 mm 0.00 in0.0 mm 0.00 in0.0 mm
01:15 AM 52.3°F11.3°C 49.2°F9.6°C 89% 0.7 mph NNE1.1 kmh NNE 1.6 mph2.6 kmh 29.76 in1007.8 mb 0.00 in0.0 mm 0.00 in0.0 mm 0.00 in0.0 mm
01:20 AM 52.3°F11.3°C 49.2°F9.6°C 89% 1.1 mph NNE1.8 kmh NNE 2.2 mph3.5 kmh 29.75 in1007.5 mb 0.00 in0.0 mm 0.00 in0.0 mm 0.00 in0.0 mm
01:25 AM 52.3°F11.3°C 49.2°F9.6°C 89% 1.4 mph NNE2.3 kmh NNE 2.2 mph3.5 kmh 29.75 in1007.5 mb 0.00 in0.0 mm 0.00 in0.0 mm 0.00 in0.0 mm
01:30 AM 52.3°F11.3°C 49.2°F9.6°C 89% 1.1 mph NNE1.8 kmh NNE 2.2 mph3.5 kmh 29.75 in1007.5 mb 0.00 in0.0 mm 0.00 in0.0 mm 0.00 in0.0 mm
01:35 AM 52.3°F11.3°C 49.2°F9.6°C 89% 0.3 mph NNE0.5 kmh NNE 1.6 mph2.6 kmh 29.75 in1007.5 mb 0.00 in0.0 mm 0.00 in0.0 mm 0.00 in0.0 mm
01:40 AM 52.3°F11.3°C 49.2°F9.6°C 89% Calm Calm 0.9 mph1.4 kmh 29.75 in1007.5 mb 0.00 in0.0 mm 0.00 in0.0 mm 0.00 in0.0 mm
01:45 AM 52.3°F11.3°C 49.2°F9.6°C 89% 0.2 mph NNE0.3 kmh NNE 1.6 mph2.6 kmh 29.74 in1007.1 mb 0.00 in0.0 mm 0.00 in0.0 mm 0.00 in0.0 mm
01:50 AM 52.3°F11.3°C 49.2°F9.6°C 89% 0.4 mph NNE0.6 kmh NNE 1.6 mph2.6 kmh 29.74 in1007.1 mb 0.00 in0.0 mm 0.00 in0.0 mm 0.00 in0.0 mm
01:55 AM 52.3°F11.3°C 49.2°F9.6°C 89% 0.2 mph NNE0.3 kmh NNE 1.3 mph2.1 kmh 29.74 in1007.1 mb 0.00 in0.0 mm 0.00 in0.0 mm 0.00 in0.0 mm
02:00 AM 52.3°F11.3°C 49.2°F9.6°C 89% Calm Calm -- 29.74 in1007.1 mb 0.00 in0.0 mm 0.00 in0.0 mm 0.00 in0.0 mm
02:05 AM 52.3°F11.3°C 49.2°F9.6°C 89% Calm Calm -- 29.74 in1007.1 mb 0.00 in0.0 mm 0.00 in0.0 mm 0.00 in0.0 mm
02:10 AM 52.3°F11.3°C 49.2°F9.6°C 89% Calm Calm -- 29.74 in1007.1 mb 0.00 in0.0 mm 0.00 in0.0 mm 0.00 in0.0 mm
02:15 AM 52.3°F11.3°C 49.2°F9.6°C 89% Calm Calm -- 29.74 in1007.1 mb 0.00 in0.0 mm 0.00 in0.0 mm 0.00 in0.0 mm
02:20 AM 52.2°F11.2°C 49.0°F9.4°C 89% Calm Calm -- 29.73 in1006.8 mb 0.00 in0.0 mm 0.00 in0.0 mm 0.00 in0.0 mm
02:25 AM 52.2°F11.2°C 49.0°F9.4°C 89% Calm Calm -- 29.74 in1007.1 mb 0.00 in0.0 mm 0.00 in0.0 mm 0.00 in0.0 mm
02:30 AM 52.2°F11.2°C 49.0°F9.4°C 89% 0.1 mph NNE0.2 kmh NNE 1.1 mph1.8 kmh 29.73 in1006.8 mb 0.00 in0.0 mm 0.00 in0.0 mm 0.00 in0.0 mm
02:35 AM 52.0°F11.1°C 48.8°F9.3°C 89% 0.1 mph NNE0.2 kmh NNE 1.1 mph1.8 kmh 29.73 in1006.8 mb 0.00 in0.0 mm 0.00 in0.0 mm 0.00 in0.0 mm
02:40 AM 52.0°F11.1°C 48.8°F9.3°C 89% Calm Calm -- 29.73 in1006.8 mb 0.00 in0.0 mm 0.00 in0.0 mm 0.00 in0.0 mm
02:45 AM 52.0°F11.1°C 48.8°F9.3°C 89% Calm Calm -- 29.73 in1006.8 mb 0.00 in0.0 mm 0.00 in0.0 mm 0.00 in0.0 mm
02:50 AM 52.0°F11.1°C 48.8°F9.3°C 89% Calm Calm -- 29.73 in1006.8 mb 0.00 in0.0 mm 0.00 in0.0 mm 0.00 in0.0 mm
02:55 AM 52.0°F11.1°C 48.8°F9.3°C 89% Calm Calm -- 29.73 in1006.8 mb 0.00 in0.0 mm 0.00 in0.0 mm 0.00 in0.0 mm
03:00 AM 51.8°F11.0°C 48.7°F9.3°C 89% Calm Calm -- 29.73 in1006.8 mb 0.00 in0.0 mm 0.00 in0.0 mm 0.00 in0.0 mm
03:05 AM 51.8°F11.0°C 48.7°F9.3°C 89% Calm Calm -- 29.73 in1006.8 mb 0.00 in0.0 mm 0.00 in0.0 mm 0.00 in0.0 mm
03:10 AM 51.6°F10.9°C 48.5°F9.2°C 89% Calm Calm -- 29.73 in1006.8 mb 0.00 in0.0 mm 0.00 in0.0 mm 0.00 in0.0 mm
03:15 AM 51.6°F10.9°C 48.5°F9.2°C 89% Calm Calm -- 29.73 in1006.8 mb 0.00 in0.0 mm 0.00 in0.0 mm 0.00 in0.0 mm
03:20 AM 51.6°F10.9°C 48.5°F9.2°C 89% Calm Calm -- 29.73 in1006.8 mb 0.00 in0.0 mm 0.00 in0.0 mm 0.00 in0.0 mm
03:25 AM 51.6°F10.9°C 48.5°F9.2°C 89% Calm Calm -- 29.73 in1006.8 mb 0.00 in0.0 mm 0.00 in0.0 mm 0.00 in0.0 mm
03:30 AM 51.6°F10.9°C 48.5°F9.2°C 89% Calm Calm -- 29.73 in1006.8 mb 0.00 in0.0 mm 0.00 in0.0 mm 0.00 in0.0 mm
03:35 AM 51.6°F10.9°C 48.5°F9.2°C 89% Calm Calm -- 29.73 in1006.8 mb 0.00 in0.0 mm 0.00 in0.0 mm 0.00 in0.0 mm
03:40 AM 51.6°F10.9°C 48.5°F9.2°C 89% Calm Calm -- 29.72 in1006.4 mb 0.00 in0.0 mm 0.00 in0.0 mm 0.00 in0.0 mm
03:45 AM 51.6°F10.9°C 48.5°F9.2°C 89% Calm Calm -- 29.72 in1006.4 mb 0.00 in0.0 mm 0.00 in0.0 mm 0.00 in0.0 mm
03:50 AM 51.6°F10.9°C 48.5°F9.2°C 89% Calm Calm -- 29.72 in1006.4 mb 0.00 in0.0 mm 0.00 in0.0 mm 0.00 in0.0 mm
03:55 AM 51.4°F10.8°C 48.3°F9.1°C 89% Calm Calm -- 29.72 in1006.4 mb 0.00 in0.0 mm 0.00 in0.0 mm 0.00 in0.0 mm
04:00 AM 51.4°F10.8°C 48.3°F9.1°C 89% Calm Calm -- 29.72 in1006.4 mb 0.00 in0.0 mm 0.00 in0.0 mm 0.00 in0.0 mm
04:05 AM 51.4°F10.8°C 48.3°F9.1°C 89% Calm Calm -- 29.72 in1006.4 mb 0.00 in0.0 mm 0.00 in0.0 mm 0.00 in0.0 mm
04:10 AM 51.4°F10.8°C 48.6°F9.2°C 90% Calm Calm -- 29.72 in1006.4 mb 0.00 in0.0 mm 0.00 in0.0 mm 0.00 in0.0 mm
04:15 AM 51.3°F10.7°C 48.1°F8.9°C 89% Calm Calm -- 29.72 in1006.4 mb 0.00 in0.0 mm 0.00 in0.0 mm 0.00 in0.0 mm
04:20 AM 51.1°F10.6°C 48.0°F8.9°C 89% Calm Calm -- 29.72 in1006.4 mb 0.00 in0.0 mm 0.00 in0.0 mm 0.00 in0.0 mm
04:25 AM 51.1°F10.6°C 48.0°F8.9°C 89% Calm Calm -- 29.72 in1006.4 mb 0.00 in0.0 mm 0.00 in0.0 mm 0.00 in0.0 mm
04:30 AM 50.9°F10.5°C 47.8°F8.8°C 89% Calm Calm -- 29.72 in1006.4 mb 0.00 in0.0 mm 0.00 in0.0 mm 0.00 in0.0 mm
04:35 AM 50.9°F10.5°C 47.8°F8.8°C 89% Calm Calm -- 29.72 in1006.4 mb 0.00 in0.0 mm 0.00 in0.0 mm 0.00 in0.0 mm
04:40 AM 50.7°F10.4°C 47.9°F8.8°C 90% Calm Calm -- 29.72 in1006.4 mb 0.00 in0.0 mm 0.00 in0.0 mm 0.00 in0.0 mm
04:45 AM 50.7°F10.4°C 47.9°F8.8°C 90% Calm Calm -- 29.72 in1006.4 mb 0.00 in0.0 mm 0.00 in0.0 mm 0.00 in0.0 mm
04:50 AM 50.7°F10.4°C 47.9°F8.8°C 90% Calm Calm -- 29.72 in1006.4 mb 0.00 in0.0 mm 0.00 in0.0 mm 0.00 in0.0 mm
04:55 AM 50.7°F10.4°C 47.9°F8.8°C 90% Calm Calm -- 29.72 in1006.4 mb 0.00 in0.0 mm 0.00 in0.0 mm 0.00 in0.0 mm
05:00 AM 50.7°F10.4°C 47.9°F8.8°C 90% Calm Calm -- 29.72 in1006.4 mb 0.00 in0.0 mm 0.00 in0.0 mm 0.00 in0.0 mm
05:05 AM 50.9°F10.5°C 48.1°F8.9°C 90% Calm Calm -- 29.72 in1006.4 mb 0.00 in0.0 mm 0.00 in0.0 mm 0.00 in0.0 mm
05:10 AM 50.9°F10.5°C 48.1°F8.9°C 90% Calm Calm -- 29.72 in1006.4 mb 0.00 in0.0 mm 0.00 in0.0 mm 0.00 in0.0 mm
05:15 AM 50.9°F10.5°C 48.1°F8.9°C 90% Calm Calm -- 29.72 in1006.4 mb 0.00 in0.0 mm 0.00 in0.0 mm 0.00 in0.0 mm
05:20 AM 50.9°F10.5°C 48.1°F8.9°C 90% Calm Calm -- 29.72 in1006.4 mb 0.00 in0.0 mm 0.00 in0.0 mm 0.00 in0.0 mm
05:25 AM 51.1°F10.6°C 48.2°F9.0°C 90% Calm Calm -- 29.71 in1006.1 mb 0.00 in0.0 mm 0.00 in0.0 mm 0.00 in0.0 mm
05:30 AM 51.1°F10.6°C 48.2°F9.0°C 90% Calm Calm -- 29.72 in1006.4 mb 0.00 in0.0 mm 0.00 in0.0 mm 0.00 in0.0 mm
05:35 AM 51.1°F10.6°C 48.2°F9.0°C 90% Calm Calm -- 29.72 in1006.4 mb 0.00 in0.0 mm 0.00 in0.0 mm 0.00 in0.0 mm
05:40 AM 51.1°F10.6°C 48.2°F9.0°C 90% Calm Calm -- 29.72 in1006.4 mb 0.00 in0.0 mm 0.00 in0.0 mm 0.00 in0.0 mm
05:45 AM 51.1°F10.6°C 48.2°F9.0°C 90% Calm Calm -- 29.72 in1006.4 mb 0.00 in0.0 mm 0.00 in0.0 mm 0.00 in0.0 mm
05:50 AM 51.1°F10.6°C 48.2°F9.0°C 90% Calm Calm -- 29.72 in1006.4 mb 0.00 in0.0 mm 0.00 in0.0 mm 0.00 in0.0 mm
05:55 AM 51.1°F10.6°C 48.2°F9.0°C 90% Calm Calm -- 29.72 in1006.4 mb 0.00 in0.0 mm 0.00 in0.0 mm 0.00 in0.0 mm
06:00 AM 51.1°F10.6°C 48.2°F9.0°C 90% 0.1 mph NNW0.2 kmh NNW 6.9 mph11.1 kmh 29.72 in1006.4 mb 0.00 in0.0 mm 0.00 in0.0 mm 0.00 in0.0 mm
06:05 AM 51.1°F10.6°C 48.2°F9.0°C 90% 0.1 mph NNW0.2 kmh NNW 6.9 mph11.1 kmh 29.72 in1006.4 mb 0.00 in0.0 mm 0.00 in0.0 mm 0.00 in0.0 mm
06:10 AM 51.3°F10.7°C 48.4°F9.1°C 90% Calm Calm -- 29.72 in1006.4 mb 0.00 in0.0 mm 0.00 in0.0 mm 0.00 in0.0 mm
06:15 AM 51.3°F10.7°C 48.4°F9.1°C 90% Calm Calm -- 29.72 in1006.4 mb 0.00 in0.0 mm 0.00 in0.0 mm 0.00 in0.0 mm
06:20 AM 51.3°F10.7°C 48.4°F9.1°C 90% Calm Calm -- 29.72 in1006.4 mb 0.00 in0.0 mm 0.00 in0.0 mm 0.00 in0.0 mm
06:25 AM 51.4°F10.8°C 48.6°F9.2°C 90% Calm Calm -- 29.72 in1006.4 mb 0.00 in0.0 mm 0.00 in0.0 mm 0.00 in0.0 mm
06:30 AM 51.6°F10.9°C 48.8°F9.3°C 90% Calm Calm -- 29.73 in1006.8 mb 0.00 in0.0 mm 0.00 in0.0 mm 0.00 in0.0 mm
06:35 AM 51.6°F10.9°C 48.8°F9.3°C 90% Calm Calm -- 29.72 in1006.4 mb 0.00 in0.0 mm 0.00 in0.0 mm 0.00 in0.0 mm
06:40 AM 51.6°F10.9°C 48.8°F9.3°C 90% Calm Calm -- 29.72 in1006.4 mb 0.00 in0.0 mm 0.00 in0.0 mm 0.00 in0.0 mm
06:45 AM 51.8°F11.0°C 49.3°F9.6°C 91% Calm Calm -- 29.72 in1006.4 mb 0.00 in0.0 mm 0.00 in0.0 mm 0.00 in0.0 mm
06:50 AM 52.0°F11.1°C 49.4°F9.7°C 91% Calm Calm -- 29.72 in1006.4 mb 0.00 in0.0 mm 0.00 in0.0 mm 0.00 in0.0 mm
06:55 AM 52.2°F11.2°C 49.6°F9.8°C 91% Calm Calm -- 29.72 in1006.4 mb 0.00 in0.0 mm 0.00 in0.0 mm 0.00 in0.0 mm
07:00 AM 52.3°F11.3°C 49.8°F9.9°C 91% Calm Calm -- 29.71 in1006.1 mb 0.00 in0.0 mm 0.00 in0.0 mm 0.00 in0.0 mm
07:05 AM 52.5°F11.4°C 50.0°F10.0°C 91% Calm Calm -- 29.71 in1006.1 mb 0.00 in0.0 mm 0.00 in0.0 mm 0.00 in0.0 mm
07:10 AM 52.9°F11.6°C 50.3°F10.2°C 91% Calm Calm -- 29.70 in1005.8 mb 0.00 in0.0 mm 0.00 in0.0 mm 0.00 in0.0 mm
07:15 AM 53.4°F11.9°C 50.9°F10.5°C 91% Calm Calm -- 29.71 in1006.1 mb 0.00 in0.0 mm 0.00 in0.0 mm 0.00 in0.0 mm
07:20 AM 53.4°F11.9°C 50.9°F10.5°C 91% Calm Calm -- 29.70 in1005.8 mb 0.00 in0.0 mm 0.00 in0.0 mm 0.00 in0.0 mm
07:25 AM 53.8°F12.1°C 51.2°F10.7°C 91% Calm Calm -- 29.70 in1005.8 mb 0.00 in0.0 mm 0.00 in0.0 mm 0.00 in0.0 mm
07:30 AM 54.0°F12.2°C 51.4°F10.8°C 91% Calm Calm -- 29.71 in1006.1 mb 0.00 in0.0 mm 0.00 in0.0 mm 0.00 in0.0 mm
07:35 AM 54.1°F12.3°C 51.6°F10.9°C 91% 1.0 mph SSW1.6 kmh SSW 5.4 mph8.7 kmh 29.72 in1006.4 mb 0.00 in0.0 mm 0.00 in0.0 mm 0.00 in0.0 mm
07:40 AM 54.3°F12.4°C 51.7°F10.9°C 91% 3.2 mph SSW5.1 kmh SSW 8.3 mph13.4 kmh 29.72 in1006.4 mb 0.00 in0.0 mm 0.00 in0.0 mm 0.00 in0.0 mm
07:45 AM 54.1°F12.3°C 51.6°F10.9°C 91% 4.0 mph SSW6.4 kmh SSW 8.3 mph13.4 kmh 29.73 in1006.8 mb 0.00 in0.0 mm 0.00 in0.0 mm 0.00 in0.0 mm
07:50 AM 54.1°F12.3°C 51.6°F10.9°C 91% 3.5 mph SSW5.6 kmh SSW 6.9 mph11.1 kmh 29.72 in1006.4 mb 0.00 in0.0 mm 0.00 in0.0 mm 0.00 in0.0 mm
07:55 AM 54.0°F12.2°C 51.4°F10.8°C 91% 3.0 mph S4.8 kmh S 6.9 mph11.1 kmh 29.72 in1006.4 mb 0.00 in0.0 mm 0.00 in0.0 mm 0.00 in0.0 mm
08:00 AM 53.8°F12.1°C 51.2°F10.7°C 91% 2.1 mph S3.4 kmh S 4.9 mph7.9 kmh 29.72 in1006.4 mb 0.00 in0.0 mm 0.00 in0.0 mm 0.00 in0.0 mm
08:05 AM 53.8°F12.1°C 51.2°F10.7°C 91% 1.2 mph S1.9 kmh S 3.6 mph5.8 kmh 29.71 in1006.1 mb 0.00 in0.0 mm 0.00 in0.0 mm 0.00 in0.0 mm
08:10 AM 53.8°F12.1°C 51.2°F10.7°C 91% 0.8 mph W1.3 kmh W 2.2 mph3.5 kmh 29.71 in1006.1 mb 0.00 in0.0 mm 0.00 in0.0 mm 0.00 in0.0 mm
08:15 AM 53.8°F12.1°C 51.2°F10.7°C 91% 0.9 mph WSW1.4 kmh WSW 2.5 mph4.0 kmh 29.71 in1006.1 mb 0.00 in0.0 mm 0.00 in0.0 mm 0.00 in0.0 mm
08:20 AM 54.0°F12.2°C 51.7°F10.9°C 92% 0.9 mph SSW1.4 kmh SSW 3.1 mph5.0 kmh 29.71 in1006.1 mb 0.00 in0.0 mm 0.00 in0.0 mm 0.00 in0.0 mm
08:25 AM 54.1°F12.3°C 51.9°F11.1°C 92% 1.2 mph S1.9 kmh S 3.1 mph5.0 kmh 29.71 in1006.1 mb 0.00 in0.0 mm 0.00 in0.0 mm 0.00 in0.0 mm
08:30 AM 54.1°F12.3°C 51.9°F11.1°C 92% 0.8 mph S1.3 kmh S 2.7 mph4.3 kmh 29.71 in1006.1 mb 0.00 in0.0 mm 0.00 in0.0 mm 0.00 in0.0 mm
08:35 AM 54.1°F12.3°C 51.9°F11.1°C 92% 0.2 mph SE0.3 kmh SE 1.8 mph2.9 kmh 29.71 in1006.1 mb 0.00 in0.0 mm 0.00 in0.0 mm 0.00 in0.0 mm
08:40 AM 54.3°F12.4°C 52.0°F11.1°C 92% 1.0 mph SSE1.6 kmh SSE 3.8 mph6.1 kmh 29.71 in1006.1 mb 0.00 in0.0 mm 0.00 in0.0 mm 0.00 in0.0 mm
08:45 AM 54.5°F12.5°C 52.2°F11.2°C 92% 2.0 mph SSE3.2 kmh SSE 3.8 mph6.1 kmh 29.71 in1006.1 mb 0.00 in0.0 mm 0.00 in0.0 mm 0.00 in0.0 mm
08:50 AM 54.7°F12.6°C 52.4°F11.3°C 92% 1.8 mph S2.9 kmh S 3.6 mph5.8 kmh 29.71 in1006.1 mb 0.00 in0.0 mm 0.00 in0.0 mm 0.00 in0.0 mm
08:55 AM 54.7°F12.6°C 52.4°F11.3°C 92% 1.3 mph SSW2.1 kmh SSW 2.9 mph4.7 kmh 29.71 in1006.1 mb 0.00 in0.0 mm 0.00 in0.0 mm 0.00 in0.0 mm
09:00 AM 54.9°F12.7°C 52.6°F11.4°C 92% 1.6 mph SSW2.6 kmh SSW 3.6 mph5.8 kmh 29.71 in1006.1 mb 0.00 in0.0 mm 0.00 in0.0 mm 0.00 in0.0 mm
09:05 AM 55.0°F12.8°C 52.8°F11.6°C 92% 2.1 mph SSW3.4 kmh SSW 3.6 mph5.8 kmh 29.71 in1006.1 mb 0.00 in0.0 mm 0.00 in0.0 mm 0.00 in0.0 mm
09:10 AM 55.0°F12.8°C 52.8°F11.6°C 92% 1.7 mph S2.7 kmh S 3.6 mph5.8 kmh 29.71 in1006.1 mb 0.00 in0.0 mm 0.00 in0.0 mm 0.00 in0.0 mm
09:15 AM 55.2°F12.9°C 52.6°F11.4°C 91% 1.0 mph S1.6 kmh S 3.4 mph5.5 kmh 29.71 in1006.1 mb 0.00 in0.0 mm 0.00 in0.0 mm 0.00 in0.0 mm
09:20 AM 55.2°F12.9°C 52.9°F11.6°C 92% 0.7 mph S1.1 kmh S 2.5 mph4.0 kmh 29.71 in1006.1 mb 0.00 in0.0 mm 0.00 in0.0 mm 0.00 in0.0 mm
09:25 AM 55.6°F13.1°C 53.3°F11.8°C 92% 0.7 mph SSE1.1 kmh SSE 2.7 mph4.3 kmh 29.71 in1006.1 mb 0.00 in0.0 mm 0.00 in0.0 mm 0.00 in0.0 mm
09:30 AM 55.8°F13.2°C 53.5°F11.9°C 92% 1.2 mph S1.9 kmh S 3.6 mph5.8 kmh 29.71 in1006.1 mb 0.00 in0.0 mm 0.00 in0.0 mm 0.00 in0.0 mm
09:35 AM 55.9°F13.3°C 53.6°F12.0°C 92% 2.0 mph S3.2 kmh S 3.6 mph5.8 kmh 29.71 in1006.1 mb 0.00 in0.0 mm 0.00 in0.0 mm 0.00 in0.0 mm
09:40 AM 56.3°F13.5°C 53.7°F12.1°C 91% 1.9 mph SSW3.1 kmh SSW 3.6 mph5.8 kmh 29.71 in1006.1 mb 0.00 in0.0 mm 0.00 in0.0 mm 0.00 in0.0 mm
09:45 AM 56.5°F13.6°C 53.9°F12.2°C 91% 2.2 mph SSW3.5 kmh SSW 3.8 mph6.1 kmh 29.70 in1005.8 mb 0.00 in0.0 mm 0.00 in0.0 mm 0.00 in0.0 mm
09:50 AM 56.8°F13.8°C 54.2°F12.3°C 91% 2.3 mph S3.7 kmh S 6.3 mph10.1 kmh 29.70 in1005.8 mb 0.00 in0.0 mm 0.00 in0.0 mm 0.00 in0.0 mm
09:55 AM 57.0°F13.9°C 54.4°F12.4°C 91% 1.6 mph S2.6 kmh S 6.3 mph10.1 kmh 29.70 in1005.8 mb 0.00 in0.0 mm 0.00 in0.0 mm 0.00 in0.0 mm
10:00 AM 57.7°F14.3°C 55.1°F12.8°C 91% 1.7 mph SE2.7 kmh SE 4.5 mph7.2 kmh 29.70 in1005.8 mb 0.00 in0.0 mm 0.00 in0.0 mm 0.00 in0.0 mm
10:05 AM 57.9°F14.4°C 55.3°F12.9°C 91% 2.5 mph SE4.0 kmh SE 5.1 mph8.2 kmh 29.70 in1005.8 mb 0.00 in0.0 mm 0.00 in0.0 mm 0.00 in0.0 mm
10:10 AM 58.1°F14.5°C 55.2°F12.9°C 90% 2.8 mph SE4.5 kmh SE 5.1 mph8.2 kmh 29.70 in1005.8 mb 0.00 in0.0 mm 0.00 in0.0 mm 0.00 in0.0 mm
10:15 AM 58.1°F14.5°C 54.9°F12.7°C 89% 3.2 mph SSE5.1 kmh SSE 6.9 mph11.1 kmh 29.70 in1005.8 mb 0.00 in0.0 mm 0.00 in0.0 mm 0.00 in0.0 mm
10:20 AM 58.3°F14.6°C 55.1°F12.8°C 89% 3.7 mph SE6.0 kmh SE 6.9 mph11.1 kmh 29.70 in1005.8 mb 0.00 in0.0 mm 0.00 in0.0 mm 0.00 in0.0 mm
10:25 AM 58.6°F14.8°C 55.1°F12.8°C 88% 3.1 mph SE5.0 kmh SE 7.8 mph12.6 kmh 29.70 in1005.8 mb 0.00 in0.0 mm 0.00 in0.0 mm 0.00 in0.0 mm
10:30 AM 58.8°F14.9°C 55.0°F12.8°C 87% 2.6 mph SE4.2 kmh SE 7.8 mph12.6 kmh 29.70 in1005.8 mb 0.00 in0.0 mm 0.00 in0.0 mm 0.00 in0.0 mm
10:35 AM 59.0°F15.0°C 55.1°F12.8°C 87% 2.3 mph SSE3.7 kmh SSE 5.1 mph8.2 kmh 29.70 in1005.8 mb 0.00 in0.0 mm 0.00 in0.0 mm 0.00 in0.0 mm
10:40 AM 59.4°F15.2°C 55.5°F13.1°C 87% 1.7 mph SSE2.7 kmh SSE 3.6 mph5.8 kmh 29.70 in1005.8 mb 0.00 in0.0 mm 0.00 in0.0 mm 0.00 in0.0 mm
10:45 AM 59.5°F15.3°C 55.3°F12.9°C 86% 2.1 mph S3.4 kmh S 6.0 mph9.7 kmh 29.70 in1005.8 mb 0.00 in0.0 mm 0.00 in0.0 mm 0.00 in0.0 mm
10:50 AM 59.9°F15.5°C 55.7°F13.2°C 86% 4.5 mph S7.2 kmh S 9.2 mph14.8 kmh 29.70 in1005.8 mb 0.00 in0.0 mm 0.00 in0.0 mm 0.00 in0.0 mm
10:55 AM 60.1°F15.6°C 55.6°F13.1°C 85% 4.8 mph SSE7.7 kmh SSE 9.2 mph14.8 kmh 29.70 in1005.8 mb 0.00 in0.0 mm 0.00 in0.0 mm 0.00 in0.0 mm
11:00 AM 60.1°F15.6°C 55.2°F12.9°C 84% 3.7 mph SE6.0 kmh SE 8.9 mph14.3 kmh 29.69 in1005.4 mb 0.00 in0.0 mm 0.00 in0.0 mm 0.00 in0.0 mm
11:05 AM 60.1°F15.6°C 55.2°F12.9°C 84% 2.3 mph SE3.7 kmh SE 7.8 mph12.6 kmh 29.69 in1005.4 mb 0.00 in0.0 mm 0.00 in0.0 mm 0.00 in0.0 mm
11:10 AM 60.4°F15.8°C 55.6°F13.1°C 84% 1.3 mph ESE2.1 kmh ESE 5.8 mph9.3 kmh 29.69 in1005.4 mb 0.00 in0.0 mm 0.00 in0.0 mm 0.00 in0.0 mm
11:15 AM 60.6°F15.9°C 55.8°F13.2°C 84% 2.0 mph ESE3.2 kmh ESE 5.8 mph9.3 kmh 29.69 in1005.4 mb 0.00 in0.0 mm 0.00 in0.0 mm 0.00 in0.0 mm
11:20 AM 60.6°F15.9°C 55.8°F13.2°C 84% 1.7 mph ESE2.7 kmh ESE 5.1 mph8.2 kmh 29.69 in1005.4 mb 0.00 in0.0 mm 0.00 in0.0 mm 0.00 in0.0 mm
11:25 AM 61.0°F16.1°C 56.1°F13.4°C 84% 1.3 mph ENE2.1 kmh ENE 3.1 mph5.0 kmh 29.69 in1005.4 mb 0.00 in0.0 mm 0.00 in0.0 mm 0.00 in0.0 mm
11:30 AM 61.3°F16.3°C 56.5°F13.6°C 84% 2.2 mph E3.5 kmh E 5.8 mph9.3 kmh 29.69 in1005.4 mb 0.00 in0.0 mm 0.00 in0.0 mm 0.00 in0.0 mm
11:35 AM 61.5°F16.4°C 56.3°F13.5°C 83% 3.4 mph SE5.5 kmh SE 8.1 mph13.0 kmh 29.69 in1005.4 mb 0.00 in0.0 mm 0.00 in0.0 mm 0.00 in0.0 mm
11:40 AM 61.5°F16.4°C 56.3°F13.5°C 83% 2.7 mph SE4.3 kmh SE 8.1 mph13.0 kmh 29.69 in1005.4 mb 0.00 in0.0 mm 0.00 in0.0 mm 0.00 in0.0 mm
11:45 AM 61.5°F16.4°C 56.0°F13.3°C 82% 2.8 mph SE4.5 kmh SE 7.8 mph12.6 kmh 29.69 in1005.4 mb 0.00 in0.0 mm 0.00 in0.0 mm 0.00 in0.0 mm
11:50 AM 61.3°F16.3°C 55.8°F13.2°C 82% 3.1 mph SE5.0 kmh SE 7.8 mph12.6 kmh 29.69 in1005.4 mb 0.00 in0.0 mm 0.00 in0.0 mm 0.00 in0.0 mm
11:55 AM 61.2°F16.2°C 55.6°F13.1°C 82% 1.9 mph SE3.1 kmh SE 7.2 mph11.6 kmh 29.68 in1005.1 mb 0.00 in0.0 mm 0.00 in0.0 mm 0.00 in0.0 mm
12:00 PM 61.2°F16.2°C 55.6°F13.1°C 82% 1.6 mph SE2.6 kmh SE 4.0 mph6.4 kmh 29.68 in1005.1 mb 0.00 in0.0 mm 0.00 in0.0 mm 0.00 in0.0 mm
12:05 PM 61.3°F16.3°C 55.8°F13.2°C 82% 2.0 mph SE3.2 kmh SE 6.3 mph10.1 kmh 29.68 in1005.1 mb 0.00 in0.0 mm 0.00 in0.0 mm 0.00 in0.0 mm
12:10 PM 61.5°F16.4°C 56.0°F13.3°C 82% 2.7 mph SE4.3 kmh SE 8.1 mph13.0 kmh 29.68 in1005.1 mb 0.00 in0.0 mm 0.00 in0.0 mm 0.00 in0.0 mm
12:15 PM 61.9°F16.6°C 56.0°F13.3°C 81% 4.1 mph SE6.6 kmh SE 10.3 mph16.6 kmh 29.68 in1005.1 mb 0.00 in0.0 mm 0.00 in0.0 mm 0.00 in0.0 mm
12:20 PM 62.2°F16.8°C 56.0°F13.3°C 80% 4.3 mph SE6.9 kmh SE 10.3 mph16.6 kmh 29.68 in1005.1 mb 0.00 in0.0 mm 0.00 in0.0 mm 0.00 in0.0 mm
12:25 PM 62.4°F16.9°C 55.8°F13.2°C 79% 3.6 mph SE5.8 kmh SE 10.1 mph16.3 kmh 29.68 in1005.1 mb 0.00 in0.0 mm 0.00 in0.0 mm 0.00 in0.0 mm
12:30 PM 62.4°F16.9°C 55.5°F13.1°C 78% 3.4 mph SE5.5 kmh SE 10.1 mph16.3 kmh 29.68 in1005.1 mb 0.00 in0.0 mm 0.00 in0.0 mm 0.00 in0.0 mm
12:35 PM 62.8°F17.1°C 55.8°F13.2°C 78% 3.4 mph SE5.5 kmh SE 8.1 mph13.0 kmh 29.68 in1005.1 mb 0.00 in0.0 mm 0.00 in0.0 mm 0.00 in0.0 mm
12:40 PM 63.0°F17.2°C 56.0°F13.3°C 78% 4.0 mph SE6.4 kmh SE 10.7 mph17.2 kmh 29.67 in1004.7 mb 0.00 in0.0 mm 0.00 in0.0 mm 0.00 in0.0 mm
12:45 PM 63.1°F17.3°C 56.2°F13.4°C 78% 3.6 mph SE5.8 kmh SE 10.7 mph17.2 kmh 29.67 in1004.7 mb 0.00 in0.0 mm 0.00 in0.0 mm 0.00 in0.0 mm
12:50 PM 63.3°F17.4°C 56.0°F13.3°C 77% 3.4 mph SE5.5 kmh SE 10.5 mph16.9 kmh 29.68 in1005.1 mb 0.00 in0.0 mm 0.00 in0.0 mm 0.00 in0.0 mm
12:55 PM 63.3°F17.4°C 55.6°F13.1°C 76% 4.1 mph SE6.6 kmh SE 10.5 mph16.9 kmh 29.68 in1005.1 mb 0.00 in0.0 mm 0.00 in0.0 mm 0.00 in0.0 mm
01:00 PM 63.3°F17.4°C 55.6°F13.1°C 76% 3.9 mph ESE6.3 kmh ESE 8.7 mph14.0 kmh 29.68 in1005.1 mb 0.00 in0.0 mm 0.00 in0.0 mm 0.00 in0.0 mm
01:05 PM 63.3°F17.4°C 55.6°F13.1°C 76% 3.7 mph ESE6.0 kmh ESE 8.7 mph14.0 kmh 29.68 in1005.1 mb 0.00 in0.0 mm 0.00 in0.0 mm 0.00 in0.0 mm
01:10 PM 63.7°F17.6°C 56.0°F13.3°C 76% 3.4 mph SE5.5 kmh SE 8.7 mph14.0 kmh 29.68 in1005.1 mb 0.00 in0.0 mm 0.00 in0.0 mm 0.00 in0.0 mm
01:15 PM 63.7°F17.6°C 56.0°F13.3°C 76% 2.6 mph SE4.2 kmh SE 9.2 mph14.8 kmh 29.67 in1004.7 mb 0.00 in0.0 mm 0.00 in0.0 mm 0.00 in0.0 mm
01:20 PM 63.7°F17.6°C 56.0°F13.3°C 76% 2.0 mph E3.2 kmh E 9.2 mph14.8 kmh 29.67 in1004.7 mb 0.00 in0.0 mm 0.00 in0.0 mm 0.00 in0.0 mm
01:25 PM 63.7°F17.6°C 56.0°F13.3°C 76% 1.7 mph SE2.7 kmh SE 9.2 mph14.8 kmh 29.67 in1004.7 mb 0.00 in0.0 mm 0.00 in0.0 mm 0.00 in0.0 mm
01:30 PM 63.7°F17.6°C 55.6°F13.1°C 75% 1.8 mph SSE2.9 kmh SSE 7.6 mph12.2 kmh 29.67 in1004.7 mb 0.00 in0.0 mm 0.00 in0.0 mm 0.00 in0.0 mm
01:35 PM 63.7°F17.6°C 56.0°F13.3°C 76% 1.8 mph SE2.9 kmh SE 6.0 mph9.7 kmh 29.67 in1004.7 mb 0.00 in0.0 mm 0.00 in0.0 mm 0.00 in0.0 mm
01:40 PM 63.7°F17.6°C 56.0°F13.3°C 76% 3.6 mph SE5.8 kmh SE 11.2 mph18.0 kmh 29.67 in1004.7 mb 0.00 in0.0 mm 0.00 in0.0 mm 0.00 in0.0 mm
01:45 PM 63.9°F17.7°C 55.8°F13.2°C 75% 6.5 mph SE10.5 kmh SE 14.3 mph23.0 kmh 29.67 in1004.7 mb 0.00 in0.0 mm 0.00 in0.0 mm 0.00 in0.0 mm
01:50 PM 64.0°F17.8°C 55.6°F13.1°C 74% 7.1 mph SE11.4 kmh SE 14.3 mph23.0 kmh 29.67 in1004.7 mb 0.00 in0.0 mm 0.00 in0.0 mm 0.00 in0.0 mm
01:55 PM 63.7°F17.6°C 55.2°F12.9°C 74% 6.3 mph SE10.1 kmh SE 12.8 mph20.6 kmh 29.67 in1004.7 mb 0.00 in0.0 mm 0.00 in0.0 mm 0.00 in0.0 mm
02:00 PM 63.7°F17.6°C 55.2°F12.9°C 74% 5.8 mph SE9.3 kmh SE 11.2 mph18.0 kmh 29.67 in1004.7 mb 0.00 in0.0 mm 0.00 in0.0 mm 0.00 in0.0 mm
02:05 PM 63.7°F17.6°C 54.9°F12.7°C 73% 5.9 mph SE9.5 kmh SE 10.5 mph16.9 kmh 29.67 in1004.7 mb 0.00 in0.0 mm 0.00 in0.0 mm 0.00 in0.0 mm
02:10 PM 63.7°F17.6°C 54.9°F12.7°C 73% 5.3 mph SE8.5 kmh SE 10.1 mph16.3 kmh 29.67 in1004.7 mb 0.00 in0.0 mm 0.00 in0.0 mm 0.00 in0.0 mm
02:15 PM 63.5°F17.5°C 54.7°F12.6°C 73% 5.1 mph SE8.2 kmh SE 11.0 mph17.7 kmh 29.67 in1004.7 mb 0.00 in0.0 mm 0.00 in0.0 mm 0.00 in0.0 mm
02:20 PM 63.3°F17.4°C 54.1°F12.3°C 72% 4.3 mph SE6.9 kmh SE 11.0 mph17.7 kmh 29.67 in1004.7 mb 0.00 in0.0 mm 0.00 in0.0 mm 0.00 in0.0 mm
02:25 PM 63.3°F17.4°C 54.1°F12.3°C 72% 4.0 mph SE6.4 kmh SE 9.2 mph14.8 kmh 29.67 in1004.7 mb 0.00 in0.0 mm 0.00 in0.0 mm 0.00 in0.0 mm
02:30 PM 63.1°F17.3°C 54.0°F12.2°C 72% 4.5 mph SE7.2 kmh SE 9.2 mph14.8 kmh 29.67 in1004.7 mb 0.00 in0.0 mm 0.00 in0.0 mm 0.00 in0.0 mm
02:35 PM 63.0°F17.2°C 54.2°F12.3°C 73% 3.9 mph SE6.3 kmh SE 8.5 mph13.7 kmh 29.67 in1004.7 mb 0.00 in0.0 mm 0.00 in0.0 mm 0.00 in0.0 mm
02:40 PM 62.8°F17.1°C 54.0°F12.2°C 73% 3.3 mph SSE5.3 kmh SSE 5.4 mph8.7 kmh 29.67 in1004.7 mb 0.00 in0.0 mm 0.00 in0.0 mm 0.00 in0.0 mm
02:45 PM 62.6°F17.0°C 53.8°F12.1°C 73% 3.5 mph SE5.6 kmh SE 6.0 mph9.7 kmh 29.67 in1004.7 mb 0.00 in0.0 mm 0.00 in0.0 mm 0.00 in0.0 mm
02:50 PM 62.4°F16.9°C 54.0°F12.2°C 74% 3.7 mph SE6.0 kmh SE 8.1 mph13.0 kmh 29.67 in1004.7 mb 0.00 in0.0 mm 0.00 in0.0 mm 0.00 in0.0 mm
02:55 PM 62.1°F16.7°C 53.7°F12.1°C 74% 4.2 mph SE6.8 kmh SE 9.8 mph15.8 kmh 29.67 in1004.7 mb 0.00 in0.0 mm 0.00 in0.0 mm 0.00 in0.0 mm
03:00 PM 61.9°F16.6°C 53.5°F11.9°C 74% 5.6 mph SE9.0 kmh SE 12.5 mph20.1 kmh 29.67 in1004.7 mb 0.00 in0.0 mm 0.00 in0.0 mm 0.00 in0.0 mm
03:05 PM 61.5°F16.4°C 53.9°F12.2°C 76% 7.7 mph SSE12.4 kmh SSE 15.2 mph24.5 kmh 29.67 in1004.7 mb 0.00 in0.0 mm 0.00 in0.0 mm 0.00 in0.0 mm
03:10 PM 61.0°F16.1°C 53.4°F11.9°C 76% 8.5 mph SSE13.7 kmh SSE 15.2 mph24.5 kmh 29.67 in1004.7 mb 0.00 in0.0 mm 0.00 in0.0 mm 0.00 in0.0 mm
03:15 PM 60.4°F15.8°C 52.8°F11.6°C 76% 6.6 mph SE10.6 kmh SE 11.9 mph19.2 kmh 29.67 in1004.7 mb 0.00 in0.0 mm 0.00 in0.0 mm 0.00 in0.0 mm
03:20 PM 59.7°F15.4°C 52.1°F11.2°C 76% 6.0 mph SE9.7 kmh SE 9.6 mph15.4 kmh 29.68 in1005.1 mb 0.02 in0.5 mm 0.24 in6.1 mm 0.02 in0.5 mm
03:25 PM 59.2°F15.1°C 51.6°F10.9°C 76% 5.4 mph SE8.7 kmh SE 9.6 mph15.4 kmh 29.67 in1004.7 mb 0.02 in0.5 mm 0.00 in0.0 mm 0.02 in0.5 mm
03:30 PM 58.8°F14.9°C 51.6°F10.9°C 77% 3.0 mph SE4.8 kmh SE 7.4 mph11.9 kmh 29.68 in1005.1 mb 0.02 in0.5 mm 0.00 in0.0 mm 0.02 in0.5 mm
03:35 PM 58.3°F14.6°C 51.4°F10.8°C 78% 1.6 mph ESE2.6 kmh ESE 5.8 mph9.3 kmh 29.67 in1004.7 mb 0.04 in1.0 mm 0.24 in6.1 mm 0.04 in1.0 mm
03:40 PM 58.1°F14.5°C 51.3°F10.7°C 78% 1.9 mph E3.1 kmh E 5.8 mph9.3 kmh 29.67 in1004.7 mb 0.04 in1.0 mm 0.00 in0.0 mm 0.04 in1.0 mm
03:45 PM 57.9°F14.4°C 51.4°F10.8°C 79% 1.9 mph E3.1 kmh E 5.6 mph9.0 kmh 29.67 in1004.7 mb 0.06 in1.5 mm 0.24 in6.1 mm 0.06 in1.5 mm
03:50 PM 57.7°F14.3°C 51.3°F10.7°C 79% 1.0 mph NE1.6 kmh NE 4.7 mph7.6 kmh 29.67 in1004.7 mb 0.06 in1.5 mm 0.00 in0.0 mm 0.06 in1.5 mm
03:55 PM 57.6°F14.2°C 51.4°F10.8°C 80% 0.5 mph NE0.8 kmh NE 2.2 mph3.5 kmh 29.67 in1004.7 mb 0.06 in1.5 mm 0.00 in0.0 mm 0.06 in1.5 mm
04:00 PM 57.6°F14.2°C 51.4°F10.8°C 80% 0.6 mph NE1.0 kmh NE 2.2 mph3.5 kmh 29.67 in1004.7 mb 0.06 in1.5 mm 0.00 in0.0 mm 0.06 in1.5 mm
04:05 PM 57.6°F14.2°C 51.4°F10.8°C 80% 0.7 mph ENE1.1 kmh ENE 2.9 mph4.7 kmh 29.67 in1004.7 mb 0.06 in1.5 mm 0.00 in0.0 mm 0.06 in1.5 mm
04:10 PM 57.6°F14.2°C 51.8°F11.0°C 81% 1.4 mph W2.3 kmh W 4.7 mph7.6 kmh 29.68 in1005.1 mb 0.06 in1.5 mm 0.00 in0.0 mm 0.06 in1.5 mm
04:15 PM 57.4°F14.1°C 51.6°F10.9°C 81% 1.3 mph WSW2.1 kmh WSW 4.7 mph7.6 kmh 29.68 in1005.1 mb 0.06 in1.5 mm 0.00 in0.0 mm 0.06 in1.5 mm
04:20 PM 57.4°F14.1°C 51.9°F11.1°C 82% 1.3 mph SE2.1 kmh SE 3.1 mph5.0 kmh 29.68 in1005.1 mb 0.04 in1.0 mm 0.00 in0.0 mm 0.06 in1.5 mm
04:25 PM 57.4°F14.1°C 51.9°F11.1°C 82% 2.0 mph SSE3.2 kmh SSE 3.8 mph6.1 kmh 29.68 in1005.1 mb 0.04 in1.0 mm 0.00 in0.0 mm 0.06 in1.5 mm
04:30 PM 57.4°F14.1°C 51.9°F11.1°C 82% 2.4 mph SE3.9 kmh SE 6.0 mph9.7 kmh 29.68 in1005.1 mb 0.04 in1.0 mm 0.00 in0.0 mm 0.06 in1.5 mm
04:35 PM 57.0°F13.9°C 51.6°F10.9°C 82% 3.0 mph SE4.8 kmh SE 6.5 mph10.5 kmh 29.68 in1005.1 mb 0.04 in1.0 mm 0.00 in0.0 mm 0.08 in2.0 mm
04:40 PM 56.8°F13.8°C 51.7°F10.9°C 83% 3.9 mph SE6.3 kmh SE 9.2 mph14.8 kmh 29.69 in1005.4 mb 0.04 in1.0 mm 0.00 in0.0 mm 0.08 in2.0 mm
04:45 PM 56.3°F13.5°C 51.2°F10.7°C 83% 4.4 mph S7.1 kmh S 9.2 mph14.8 kmh 29.69 in1005.4 mb 0.02 in0.5 mm 0.00 in0.0 mm 0.08 in2.0 mm
04:50 PM 55.9°F13.3°C 50.9°F10.5°C 83% 3.6 mph S5.8 kmh S 8.9 mph14.3 kmh 29.68 in1005.1 mb 0.04 in1.0 mm 0.24 in6.1 mm 0.10 in2.5 mm
04:55 PM 55.6°F13.1°C 50.2°F10.1°C 82% 2.9 mph SW4.7 kmh SW 5.4 mph8.7 kmh 29.68 in1005.1 mb 0.04 in1.0 mm 0.00 in0.0 mm 0.10 in2.5 mm
05:00 PM 55.2°F12.9°C 49.8°F9.9°C 82% 2.2 mph WSW3.5 kmh WSW 5.4 mph8.7 kmh 29.68 in1005.1 mb 0.04 in1.0 mm 0.00 in0.0 mm 0.10 in2.5 mm
05:05 PM 54.9°F12.7°C 49.8°F9.9°C 83% 2.1 mph NW3.4 kmh NW 6.5 mph10.5 kmh 29.67 in1004.7 mb 0.04 in1.0 mm 0.00 in0.0 mm 0.10 in2.5 mm
05:10 PM 54.5°F12.5°C 49.4°F9.7°C 83% 2.1 mph NW3.4 kmh NW 6.5 mph10.5 kmh 29.67 in1004.7 mb 0.04 in1.0 mm 0.00 in0.0 mm 0.10 in2.5 mm
05:15 PM 54.3°F12.4°C 49.3°F9.6°C 83% 1.4 mph N2.3 kmh N 4.5 mph7.2 kmh 29.68 in1005.1 mb 0.04 in1.0 mm 0.00 in0.0 mm 0.10 in2.5 mm
05:20 PM 54.3°F12.4°C 49.3°F9.6°C 83% 1.9 mph NNE3.1 kmh NNE 3.8 mph6.1 kmh 29.67 in1004.7 mb 0.04 in1.0 mm 0.00 in0.0 mm 0.10 in2.5 mm
05:25 PM 54.1°F12.3°C 49.4°F9.7°C 84% 2.2 mph NNE3.5 kmh NNE 3.8 mph6.1 kmh 29.67 in1004.7 mb 0.04 in1.0 mm 0.00 in0.0 mm 0.10 in2.5 mm
05:30 PM 54.1°F12.3°C 49.4°F9.7°C 84% 2.4 mph N3.9 kmh N 6.9 mph11.1 kmh 29.67 in1004.7 mb 0.04 in1.0 mm 0.00 in0.0 mm 0.10 in2.5 mm
05:35 PM 54.0°F12.2°C 49.2°F9.6°C 84% 2.4 mph N3.9 kmh N 6.9 mph11.1 kmh 29.67 in1004.7 mb 0.02 in0.5 mm 0.00 in0.0 mm 0.10 in2.5 mm
05:40 PM 54.0°F12.2°C 49.2°F9.6°C 84% 2.4 mph N3.9 kmh N 5.8 mph9.3 kmh 29.67 in1004.7 mb 0.02 in0.5 mm 0.00 in0.0 mm 0.10 in2.5 mm
05:45 PM 54.0°F12.2°C 49.6°F9.8°C 85% 2.6 mph N4.2 kmh N 6.3 mph10.1 kmh 29.67 in1004.7 mb 0.02 in0.5 mm 0.00 in0.0 mm 0.10 in2.5 mm
05:50 PM 53.8°F12.1°C 49.4°F9.7°C 85% 2.7 mph N4.3 kmh N 6.3 mph10.1 kmh 29.67 in1004.7 mb 0.00 in0.0 mm 0.00 in0.0 mm 0.10 in2.5 mm
05:55 PM 53.8°F12.1°C 49.4°F9.7°C 85% 2.3 mph N3.7 kmh N 5.1 mph8.2 kmh 29.67 in1004.7 mb 0.00 in0.0 mm 0.00 in0.0 mm 0.10 in2.5 mm
06:00 PM 53.8°F12.1°C 49.7°F9.8°C 86% 1.6 mph N2.6 kmh N 6.0 mph9.7 kmh 29.66 in1004.4 mb 0.00 in0.0 mm 0.00 in0.0 mm 0.10 in2.5 mm
06:05 PM 53.8°F12.1°C 49.7°F9.8°C 86% 1.5 mph N2.4 kmh N 6.0 mph9.7 kmh 29.66 in1004.4 mb 0.00 in0.0 mm 0.00 in0.0 mm 0.10 in2.5 mm
06:10 PM 53.8°F12.1°C 49.7°F9.8°C 86% 1.4 mph N2.3 kmh N 6.0 mph9.7 kmh 29.67 in1004.7 mb 0.00 in0.0 mm 0.00 in0.0 mm 0.10 in2.5 mm
06:15 PM 53.8°F12.1°C 50.0°F10.0°C 87% 1.9 mph N3.1 kmh N 4.7 mph7.6 kmh 29.67 in1004.7 mb 0.00 in0.0 mm 0.00 in0.0 mm 0.10 in2.5 mm
06:20 PM 53.8°F12.1°C 50.0°F10.0°C 87% 2.1 mph N3.4 kmh N 4.7 mph7.6 kmh 29.67 in1004.7 mb 0.00 in0.0 mm 0.00 in0.0 mm 0.10 in2.5 mm
06:25 PM 53.8°F12.1°C 50.0°F10.0°C 87% 1.6 mph NNW2.6 kmh NNW 5.1 mph8.2 kmh 29.67 in1004.7 mb 0.00 in0.0 mm 0.00 in0.0 mm 0.10 in2.5 mm
06:30 PM 53.6°F12.0°C 49.8°F9.9°C 87% 1.7 mph NNW2.7 kmh NNW 5.1 mph8.2 kmh 29.66 in1004.4 mb 0.00 in0.0 mm 0.00 in0.0 mm 0.10 in2.5 mm
06:35 PM 53.8°F12.1°C 50.0°F10.0°C 87% 1.9 mph N3.1 kmh N 5.4 mph8.7 kmh 29.67 in1004.7 mb 0.00 in0.0 mm 0.00 in0.0 mm 0.10 in2.5 mm
06:40 PM 53.8°F12.1°C 50.0°F10.0°C 87% 1.9 mph N3.1 kmh N 5.4 mph8.7 kmh 29.67 in1004.7 mb 0.00 in0.0 mm 0.00 in0.0 mm 0.10 in2.5 mm
06:45 PM 53.6°F12.0°C 49.8°F9.9°C 87% 1.3 mph NNE2.1 kmh NNE 4.0 mph6.4 kmh 29.67 in1004.7 mb 0.00 in0.0 mm 0.00 in0.0 mm 0.10 in2.5 mm
06:50 PM 53.4°F11.9°C 49.6°F9.8°C 87% 1.3 mph NNE2.1 kmh NNE 4.9 mph7.9 kmh 29.67 in1004.7 mb 0.00 in0.0 mm 0.00 in0.0 mm 0.10 in2.5 mm
06:55 PM 53.4°F11.9°C 49.6°F9.8°C 87% 1.5 mph N2.4 kmh N 6.9 mph11.1 kmh 29.66 in1004.4 mb 0.00 in0.0 mm 0.00 in0.0 mm 0.10 in2.5 mm
07:00 PM 53.4°F11.9°C 49.6°F9.8°C 87% 1.2 mph N1.9 kmh N 6.9 mph11.1 kmh 29.66 in1004.4 mb 0.00 in0.0 mm 0.00 in0.0 mm 0.10 in2.5 mm
07:05 PM 53.4°F11.9°C 49.6°F9.8°C 87% 1.1 mph N1.8 kmh N 5.8 mph9.3 kmh 29.66 in1004.4 mb 0.00 in0.0 mm 0.00 in0.0 mm 0.10 in2.5 mm
07:10 PM 53.2°F11.8°C 49.5°F9.7°C 87% 0.6 mph N1.0 kmh N 3.4 mph5.5 kmh 29.66 in1004.4 mb 0.00 in0.0 mm 0.00 in0.0 mm 0.10 in2.5 mm
07:15 PM 53.2°F11.8°C 49.5°F9.7°C 87% 0.1 mph N0.2 kmh N 2.0 mph3.2 kmh 29.66 in1004.4 mb 0.00 in0.0 mm 0.00 in0.0 mm 0.10 in2.5 mm
07:20 PM 53.2°F11.8°C 49.2°F9.6°C 86% 0.2 mph SE0.3 kmh SE 2.0 mph3.2 kmh 29.66 in1004.4 mb 0.00 in0.0 mm 0.00 in0.0 mm 0.10 in2.5 mm
07:25 PM 52.9°F11.6°C 48.8°F9.3°C 86% 0.2 mph SE0.3 kmh SE 2.0 mph3.2 kmh 29.66 in1004.4 mb 0.00 in0.0 mm 0.00 in0.0 mm 0.10 in2.5 mm
07:30 PM 52.9°F11.6°C 48.8°F9.3°C 86% Calm Calm 0.9 mph1.4 kmh 29.66 in1004.4 mb 0.00 in0.0 mm 0.00 in0.0 mm 0.10 in2.5 mm
07:35 PM 52.9°F11.6°C 48.8°F9.3°C 86% Calm Calm 0.9 mph1.4 kmh 29.65 in1004.1 mb 0.00 in0.0 mm 0.00 in0.0 mm 0.10 in2.5 mm
07:40 PM 52.9°F11.6°C 48.8°F9.3°C 86% Calm Calm 0.7 mph1.1 kmh 29.65 in1004.1 mb 0.00 in0.0 mm 0.00 in0.0 mm 0.10 in2.5 mm
07:45 PM 52.7°F11.5°C 48.6°F9.2°C 86% Calm Calm 0.7 mph1.1 kmh 29.65 in1004.1 mb 0.00 in0.0 mm 0.00 in0.0 mm 0.10 in2.5 mm
07:50 PM 52.5°F11.4°C 48.5°F9.2°C 86% 0.2 mph S0.3 kmh S 1.3 mph2.1 kmh 29.66 in1004.4 mb 0.00 in0.0 mm 0.00 in0.0 mm 0.10 in2.5 mm
07:55 PM 52.5°F11.4°C 48.5°F9.2°C 86% 0.2 mph S0.3 kmh S 1.3 mph2.1 kmh 29.66 in1004.4 mb 0.00 in0.0 mm 0.00 in0.0 mm 0.10 in2.5 mm
08:00 PM 52.3°F11.3°C 48.3°F9.1°C 86% Calm Calm -- 29.66 in1004.4 mb 0.00 in0.0 mm 0.00 in0.0 mm 0.10 in2.5 mm
08:05 PM 52.3°F11.3°C 48.3°F9.1°C 86% Calm Calm -- 29.66 in1004.4 mb 0.00 in0.0 mm 0.00 in0.0 mm 0.10 in2.5 mm
08:10 PM 52.3°F11.3°C 48.6°F9.2°C 87% 0.5 mph SW0.8 kmh SW 2.0 mph3.2 kmh 29.66 in1004.4 mb 0.00 in0.0 mm 0.00 in0.0 mm 0.10 in2.5 mm
08:15 PM 52.3°F11.3°C 48.6°F9.2°C 87% 0.7 mph WSW1.1 kmh WSW 2.0 mph3.2 kmh 29.65 in1004.1 mb 0.00 in0.0 mm 0.00 in0.0 mm 0.10 in2.5 mm
08:20 PM 52.3°F11.3°C 48.6°F9.2°C 87% 0.4 mph W0.6 kmh W 1.6 mph2.6 kmh 29.66 in1004.4 mb 0.00 in0.0 mm 0.00 in0.0 mm 0.10 in2.5 mm
08:25 PM 52.2°F11.2°C 48.4°F9.1°C 87% 0.2 mph SW0.3 kmh SW 2.7 mph4.3 kmh 29.65 in1004.1 mb 0.00 in0.0 mm 0.00 in0.0 mm 0.10 in2.5 mm
08:30 PM 52.2°F11.2°C 48.4°F9.1°C 87% 0.3 mph SW0.5 kmh SW 2.7 mph4.3 kmh 29.65 in1004.1 mb 0.00 in0.0 mm 0.00 in0.0 mm 0.10 in2.5 mm
08:35 PM 52.2°F11.2°C 48.4°F9.1°C 87% 0.2 mph SW0.3 kmh SW 1.6 mph2.6 kmh 29.65 in1004.1 mb 0.00 in0.0 mm 0.00 in0.0 mm 0.10 in2.5 mm
08:40 PM 52.2°F11.2°C 48.4°F9.1°C 87% Calm Calm -- 29.65 in1004.1 mb 0.00 in0.0 mm 0.00 in0.0 mm 0.10 in2.5 mm
08:45 PM 52.0°F11.1°C 48.2°F9.0°C 87% Calm Calm -- 29.66 in1004.4 mb 0.00 in0.0 mm 0.00 in0.0 mm 0.10 in2.5 mm
08:50 PM 52.0°F11.1°C 48.5°F9.2°C 88% Calm Calm 0.9 mph1.4 kmh 29.66 in1004.4 mb 0.00 in0.0 mm 0.00 in0.0 mm 0.10 in2.5 mm
08:55 PM 52.0°F11.1°C 48.5°F9.2°C 88% Calm Calm 0.9 mph1.4 kmh 29.66 in1004.4 mb 0.00 in0.0 mm 0.00 in0.0 mm 0.10 in2.5 mm
09:00 PM 52.0°F11.1°C 48.5°F9.2°C 88% Calm Calm -- 29.66 in1004.4 mb 0.00 in0.0 mm 0.00 in0.0 mm 0.10 in2.5 mm
09:05 PM 52.0°F11.1°C 48.5°F9.2°C 88% Calm Calm -- 29.67 in1004.7 mb 0.00 in0.0 mm 0.00 in0.0 mm 0.10 in2.5 mm
09:10 PM 52.0°F11.1°C 48.5°F9.2°C 88% Calm Calm -- 29.66 in1004.4 mb 0.00 in0.0 mm 0.00 in0.0 mm 0.10 in2.5 mm
09:15 PM 51.8°F11.0°C 48.4°F9.1°C 88% Calm Calm -- 29.66 in1004.4 mb 0.00 in0.0 mm 0.00 in0.0 mm 0.10 in2.5 mm
09:20 PM 51.6°F10.9°C 48.2°F9.0°C 88% Calm Calm -- 29.66 in1004.4 mb 0.00 in0.0 mm 0.00 in0.0 mm 0.10 in2.5 mm
09:25 PM 51.6°F10.9°C 48.2°F9.0°C 88% 0.2 mph N0.3 kmh N 2.0 mph3.2 kmh 29.65 in1004.1 mb 0.00 in0.0 mm 0.00 in0.0 mm 0.10 in2.5 mm
09:30 PM 51.6°F10.9°C 48.2°F9.0°C 88% 1.1 mph N1.8 kmh N 2.7 mph4.3 kmh 29.65 in1004.1 mb 0.00 in0.0 mm 0.00 in0.0 mm 0.10 in2.5 mm
09:35 PM 51.6°F10.9°C 48.2°F9.0°C 88% 2.0 mph N3.2 kmh N 3.6 mph5.8 kmh 29.66 in1004.4 mb 0.00 in0.0 mm 0.00 in0.0 mm 0.10 in2.5 mm
09:40 PM 51.4°F10.8°C 48.0°F8.9°C 88% 1.9 mph N3.1 kmh N 5.1 mph8.2 kmh 29.65 in1004.1 mb 0.00 in0.0 mm 0.00 in0.0 mm 0.10 in2.5 mm
09:45 PM 51.4°F10.8°C 48.0°F8.9°C 88% 2.0 mph NNE3.2 kmh NNE 5.1 mph8.2 kmh 29.66 in1004.4 mb 0.00 in0.0 mm 0.00 in0.0 mm 0.10 in2.5 mm
09:50 PM 51.4°F10.8°C 48.0°F8.9°C 88% 2.4 mph N3.9 kmh N 5.4 mph8.7 kmh 29.66 in1004.4 mb 0.00 in0.0 mm 0.00 in0.0 mm 0.10 in2.5 mm
09:55 PM 51.3°F10.7°C 47.8°F8.8°C 88% 2.2 mph N3.5 kmh N 5.4 mph8.7 kmh 29.67 in1004.7 mb 0.00 in0.0 mm 0.00 in0.0 mm 0.10 in2.5 mm
10:00 PM 51.3°F10.7°C 47.8°F8.8°C 88% 1.5 mph NNE2.4 kmh NNE 5.1 mph8.2 kmh 29.67 in1004.7 mb 0.00 in0.0 mm 0.00 in0.0 mm 0.10 in2.5 mm
10:05 PM 51.3°F10.7°C 47.8°F8.8°C 88% 1.1 mph N1.8 kmh N 4.7 mph7.6 kmh 29.66 in1004.4 mb 0.00 in0.0 mm 0.00 in0.0 mm 0.10 in2.5 mm
10:10 PM 51.3°F10.7°C 48.1°F8.9°C 89% 1.2 mph N1.9 kmh N 5.1 mph8.2 kmh 29.66 in1004.4 mb 0.00 in0.0 mm 0.00 in0.0 mm 0.10 in2.5 mm
10:15 PM 51.4°F10.8°C 48.3°F9.1°C 89% 1.9 mph N3.1 kmh N 6.0 mph9.7 kmh 29.66 in1004.4 mb 0.00 in0.0 mm 0.00 in0.0 mm 0.10 in2.5 mm
10:20 PM 51.4°F10.8°C 48.3°F9.1°C 89% 2.6 mph N4.2 kmh N 6.0 mph9.7 kmh 29.66 in1004.4 mb 0.00 in0.0 mm 0.00 in0.0 mm 0.10 in2.5 mm
10:25 PM 51.4°F10.8°C 48.3°F9.1°C 89% 2.6 mph N4.2 kmh N 6.9 mph11.1 kmh 29.66 in1004.4 mb 0.00 in0.0 mm 0.00 in0.0 mm 0.10 in2.5 mm
10:30 PM 51.4°F10.8°C 48.3°F9.1°C 89% 2.7 mph N4.3 kmh N 6.9 mph11.1 kmh 29.66 in1004.4 mb 0.00 in0.0 mm 0.00 in0.0 mm 0.10 in2.5 mm
10:35 PM 51.4°F10.8°C 48.3°F9.1°C 89% 2.5 mph N4.0 kmh N 6.9 mph11.1 kmh 29.66 in1004.4 mb 0.00 in0.0 mm 0.00 in0.0 mm 0.10 in2.5 mm
10:40 PM 51.4°F10.8°C 48.3°F9.1°C 89% 1.9 mph N3.1 kmh N 6.9 mph11.1 kmh 29.66 in1004.4 mb 0.00 in0.0 mm 0.00 in0.0 mm 0.10 in2.5 mm
10:45 PM 51.4°F10.8°C 48.3°F9.1°C 89% 1.5 mph N2.4 kmh N 6.5 mph10.5 kmh 29.66 in1004.4 mb 0.00 in0.0 mm 0.00 in0.0 mm 0.10 in2.5 mm
10:50 PM 51.6°F10.9°C 48.5°F9.2°C 89% 1.7 mph NNW2.7 kmh NNW 5.4 mph8.7 kmh 29.66 in1004.4 mb 0.00 in0.0 mm 0.00 in0.0 mm 0.10 in2.5 mm
10:55 PM 51.6°F10.9°C 48.8°F9.3°C 90% 1.7 mph NNW2.7 kmh NNW 5.4 mph8.7 kmh 29.66 in1004.4 mb 0.00 in0.0 mm 0.00 in0.0 mm 0.10 in2.5 mm
11:00 PM 51.6°F10.9°C 48.8°F9.3°C 90% 1.1 mph NNW1.8 kmh NNW 4.9 mph7.9 kmh 29.67 in1004.7 mb 0.00 in0.0 mm 0.00 in0.0 mm 0.08 in2.0 mm
11:05 PM 51.6°F10.9°C 48.8°F9.3°C 90% 0.5 mph NW0.8 kmh NW 4.5 mph7.2 kmh 29.67 in1004.7 mb 0.00 in0.0 mm 0.00 in0.0 mm 0.08 in2.0 mm
11:10 PM 51.6°F10.9°C 48.8°F9.3°C 90% 0.4 mph S0.6 kmh S 1.6 mph2.6 kmh 29.67 in1004.7 mb 0.00 in0.0 mm 0.00 in0.0 mm 0.08 in2.0 mm
11:15 PM 51.6°F10.9°C 48.8°F9.3°C 90% 0.3 mph SE0.5 kmh SE 1.6 mph2.6 kmh 29.67 in1004.7 mb 0.00 in0.0 mm 0.00 in0.0 mm 0.08 in2.0 mm
11:20 PM 51.6°F10.9°C 48.8°F9.3°C 90% 0.2 mph E0.3 kmh E 1.6 mph2.6 kmh 29.66 in1004.4 mb 0.00 in0.0 mm 0.00 in0.0 mm 0.08 in2.0 mm
11:25 PM 51.6°F10.9°C 48.8°F9.3°C 90% 0.3 mph NNE0.5 kmh NNE 2.0 mph3.2 kmh 29.66 in1004.4 mb 0.00 in0.0 mm 0.00 in0.0 mm 0.08 in2.0 mm
11:30 PM 51.6°F10.9°C 48.8°F9.3°C 90% 0.4 mph N0.6 kmh N 2.0 mph3.2 kmh 29.66 in1004.4 mb 0.00 in0.0 mm 0.00 in0.0 mm 0.08 in2.0 mm
11:35 PM 51.6°F10.9°C 48.8°F9.3°C 90% 0.3 mph SSW0.5 kmh SSW 2.0 mph3.2 kmh 29.66 in1004.4 mb 0.00 in0.0 mm 0.00 in0.0 mm 0.08 in2.0 mm
11:40 PM 51.6°F10.9°C 48.8°F9.3°C 90% 0.5 mph SSE0.8 kmh SSE 2.0 mph3.2 kmh 29.66 in1004.4 mb 0.00 in0.0 mm 0.00 in0.0 mm 0.08 in2.0 mm
11:45 PM 51.4°F10.8°C 48.6°F9.2°C 90% 0.3 mph SSE0.5 kmh SSE 2.0 mph3.2 kmh 29.66 in1004.4 mb 0.00 in0.0 mm 0.00 in0.0 mm 0.08 in2.0 mm
11:50 PM 51.4°F10.8°C 48.6°F9.2°C 90% 0.2 mph SSE0.3 kmh SSE 2.0 mph3.2 kmh 29.67 in1004.7 mb 0.00 in0.0 mm 0.00 in0.0 mm 0.08 in2.0 mm
11:55 PM 51.4°F10.8°C 48.6°F9.2°C 90% 0.3 mph S0.5 kmh S 2.0 mph3.2 kmh 29.67 in1004.7 mb 0.02 in0.5 mm 0.24 in6.1 mm 0.02 in0.5 mm